Terminal Aerodrome Forecast
Issued by NWS

Home | Current Version | Previous Version | Text Only | Print | Product List | Glossary On
Versions: 1 2 3 4 5 6 7 8 9 10 11 12 13 14 15 16 17 18 19 20 21 22 23 24
000
FTUS43 KLSX 260600 AAA
TAFCPS
TAF AMD
KCPS 260603Z 2606/2706 15010KT P6SM BKN015 OVC150
     FM260800 17008KT 6SM -SHRA VCTS SCT020CB OVC080
      TEMPO 2608/2609 22015G30KT 3SM TSRA OVC020CB
     FM261300 20012G22KT P6SM SCT025 BKN100=

USA.gov is the U.S. government's official web portal to all federal, state and local government web resources and services.